createdAt,value
2017-09-24T00:01:21.067Z,27.90
2017-09-24T00:03:51.402Z,28.80
2017-09-24T00:06:22.103Z,32.40
2017-09-24T00:08:52.485Z,27.63
2017-09-24T00:11:22.422Z,28.57
2017-09-24T00:13:52.677Z,28.30
2017-09-24T00:16:22.594Z,28.27
2017-09-24T00:18:52.954Z,32.33
2017-09-24T00:21:22.866Z,27.80
2017-09-24T00:23:53.118Z,29.47
2017-09-24T00:26:23.060Z,31.13
2017-09-24T00:28:53.297Z,28.57
2017-09-24T00:31:23.199Z,28.43
2017-09-24T00:33:53.540Z,28.43
2017-09-24T00:36:23.455Z,27.13
2017-09-24T00:38:53.372Z,31.53
2017-09-24T00:41:23.298Z,30.50
2017-09-24T00:43:53.243Z,30.43
2017-09-24T00:46:23.613Z,28.00
2017-09-24T00:48:53.515Z,28.83
2017-09-24T00:51:23.796Z,29.13
2017-09-24T00:53:53.679Z,29.03
2017-09-24T00:56:23.934Z,27.10
2017-09-24T00:58:53.835Z,30.57
2017-09-24T01:01:24.245Z,29.80
2017-09-24T01:03:54.162Z,31.17
2017-09-24T01:06:24.405Z,32.20
2017-09-24T01:08:54.372Z,29.43
2017-09-24T01:11:24.311Z,31.57
2017-09-24T01:13:54.201Z,31.17
2017-09-24T01:16:24.224Z,30.20
2017-09-24T01:18:54.586Z,31.27
2017-09-24T01:21:24.585Z,30.60
2017-09-24T01:23:54.915Z,32.90
2017-09-24T01:26:24.816Z,30.90
2017-09-24T01:28:55.049Z,30.07
2017-09-24T01:31:24.917Z,31.90
2017-09-24T01:33:55.223Z,29.60
2017-09-24T01:36:25.189Z,29.63
2017-09-24T01:38:55.724Z,29.53
2017-09-24T01:41:25.678Z,30.40
2017-09-24T01:43:55.948Z,29.00
2017-09-24T01:46:25.828Z,29.93
2017-09-24T01:48:56.074Z,30.73
2017-09-24T01:51:25.942Z,29.50
2017-09-24T01:53:56.239Z,29.07
2017-09-24T01:56:26.159Z,30.33
2017-09-24T01:58:56.470Z,32.07
2017-09-24T02:01:26.357Z,30.67
2017-09-24T02:03:56.329Z,31.33
2017-09-24T02:06:26.216Z,30.60
2017-09-24T02:08:56.106Z,33.17
2017-09-24T02:11:26.454Z,28.80
2017-09-24T02:13:56.389Z,30.33
2017-09-24T02:16:26.691Z,30.80
2017-09-24T02:18:56.566Z,29.23
2017-09-24T02:21:26.838Z,36.63
2017-09-24T02:23:56.766Z,29.07
2017-09-24T02:26:27.269Z,27.93
2017-09-24T02:28:57.606Z,28.37
2017-09-24T02:31:27.637Z,29.50
2017-09-24T02:33:57.518Z,26.77
2017-09-24T02:36:27.795Z,27.80
2017-09-24T02:38:57.729Z,29.70
2017-09-24T02:41:27.952Z,28.60
2017-09-24T02:43:57.900Z,29.73
2017-09-24T02:46:28.209Z,31.63
2017-09-24T02:48:58.102Z,31.73
2017-09-24T02:51:28.461Z,30.20
2017-09-24T02:53:58.340Z,29.60
2017-09-24T02:56:28.767Z,29.53
2017-09-24T02:58:58.650Z,30.90
2017-09-24T03:01:28.904Z,31.30
2017-09-24T03:03:58.816Z,30.57
2017-09-24T03:06:29.060Z,31.80
2017-09-24T03:08:58.966Z,32.00
2017-09-24T03:11:32.244Z,32.17
2017-09-24T03:14:03.050Z,31.67
2017-09-24T03:16:33.295Z,32.43
2017-09-24T03:19:03.202Z,32.03
2017-09-24T03:21:33.414Z,30.70
2017-09-24T03:24:03.309Z,31.80
2017-09-24T03:26:33.233Z,31.83
2017-09-24T03:29:03.142Z,30.33
2017-09-24T03:31:33.074Z,30.60
2017-09-24T03:34:03.435Z,35.40
2017-09-24T03:36:33.338Z,31.50
2017-09-24T03:39:03.662Z,32.53
2017-09-24T03:41:33.567Z,34.70
2017-09-24T03:44:03.781Z,34.73
2017-09-24T03:46:33.710Z,33.23
2017-09-24T03:49:04.035Z,33.97
2017-09-24T03:51:33.941Z,34.17
2017-09-24T03:54:04.285Z,36.20
2017-09-24T03:56:34.206Z,36.10
2017-09-24T03:59:04.513Z,34.10
2017-09-24T04:01:34.432Z,35.30
2017-09-24T04:04:04.340Z,34.80
2017-09-24T04:06:34.238Z,37.73
2017-09-24T04:09:04.148Z,38.17
2017-09-24T04:11:34.469Z,37.13
2017-09-24T04:14:04.385Z,35.53
2017-09-24T04:16:34.328Z,34.70
2017-09-24T04:19:04.209Z,33.73
2017-09-24T04:21:34.119Z,37.23
2017-09-24T04:24:04.371Z,34.90
2017-09-24T04:26:34.274Z,35.27
2017-09-24T04:29:04.702Z,35.57
2017-09-24T04:31:34.700Z,36.00
2017-09-24T04:34:05.067Z,34.70
2017-09-24T04:36:34.934Z,35.70
2017-09-24T04:39:05.261Z,35.33
2017-09-24T04:41:35.161Z,34.13
2017-09-24T04:44:05.508Z,40.60
2017-09-24T04:46:35.399Z,37.03
2017-09-24T04:49:05.744Z,36.17
2017-09-24T04:51:35.650Z,36.70
2017-09-24T04:54:06.017Z,35.87
2017-09-24T04:56:35.937Z,40.50
2017-09-24T04:59:06.229Z,36.37
2017-09-24T05:01:36.126Z,36.03
2017-09-24T05:04:06.470Z,39.73
2017-09-24T05:06:36.385Z,35.23
2017-09-24T05:09:06.835Z,40.43
2017-09-24T05:11:36.800Z,39.20
2017-09-24T05:14:07.148Z,35.90
2017-09-24T05:16:37.090Z,37.20
2017-09-24T05:19:07.367Z,35.97
2017-09-24T05:21:37.296Z,40.20
2017-09-24T05:24:07.551Z,36.10
2017-09-24T05:26:37.714Z,39.33
2017-09-24T05:29:08.085Z,36.10
2017-09-24T05:31:37.999Z,32.50
2017-09-24T05:34:08.376Z,35.20
2017-09-24T05:36:38.321Z,34.70
2017-09-24T05:39:08.554Z,34.27
2017-09-24T05:41:38.446Z,34.27
2017-09-24T05:44:08.910Z,33.70
2017-09-24T05:46:38.818Z,35.60
2017-09-24T05:49:09.103Z,35.47
2017-09-24T05:51:39.026Z,33.03
2017-09-24T05:54:09.441Z,35.60
2017-09-24T05:56:39.320Z,32.50
2017-09-24T05:59:09.603Z,37.77
2017-09-24T06:01:39.473Z,34.83
2017-09-24T06:04:09.362Z,33.50
2017-09-24T06:06:39.281Z,33.23
2017-09-24T06:09:09.182Z,33.07
2017-09-24T06:11:39.102Z,34.90
2017-09-24T06:14:08.989Z,39.93
2017-09-24T06:16:39.231Z,32.70
2017-09-24T06:19:09.118Z,34.77
2017-09-24T06:21:39.406Z,32.93
2017-09-24T06:24:09.360Z,30.20
2017-09-24T06:26:39.801Z,29.00
2017-09-24T06:29:09.699Z,27.73
2017-09-24T06:31:39.976Z,32.17
2017-09-24T06:34:09.863Z,30.80
2017-09-24T06:36:40.120Z,31.00
2017-09-24T06:39:10.023Z,25.87
2017-09-24T06:41:40.270Z,29.20
2017-09-24T06:44:10.172Z,30.27
2017-09-24T06:46:40.508Z,29.53
2017-09-24T06:49:10.394Z,26.90
2017-09-24T06:51:40.296Z,27.00
2017-09-24T06:54:10.169Z,29.67
2017-09-24T06:56:40.047Z,27.77
2017-09-24T06:59:10.371Z,27.57
2017-09-24T07:01:40.242Z,28.43
2017-09-24T07:04:10.612Z,25.17
2017-09-24T07:06:40.498Z,25.10
2017-09-24T07:09:10.754Z,24.37
2017-09-24T07:11:40.615Z,29.80
2017-09-24T07:14:10.885Z,25.27
2017-09-24T07:16:40.800Z,28.40
2017-09-24T07:19:11.107Z,26.00
2017-09-24T07:21:40.980Z,26.47
2017-09-24T07:24:11.355Z,25.07
2017-09-24T07:26:42.008Z,22.77
2017-09-24T07:29:12.254Z,25.57
2017-09-24T07:31:42.128Z,21.83
2017-09-24T07:34:12.586Z,17.90
2017-09-24T07:36:42.476Z,22.90
2017-09-24T07:39:12.759Z,21.90
2017-09-24T07:41:42.719Z,20.17
2017-09-24T07:44:12.972Z,22.23
2017-09-24T07:46:42.878Z,21.93
2017-09-24T07:49:13.125Z,19.70
2017-09-24T07:51:43.031Z,19.77
2017-09-24T07:54:13.407Z,21.23
2017-09-24T07:56:43.431Z,21.77
2017-09-24T07:59:13.724Z,18.30
2017-09-24T08:01:43.777Z,17.87
2017-09-24T08:04:14.062Z,21.13
2017-09-24T08:06:43.980Z,22.23
2017-09-24T08:09:14.306Z,19.43
2017-09-24T08:11:44.203Z,20.27
2017-09-24T08:14:14.527Z,19.67
2017-09-24T08:16:44.397Z,18.53
2017-09-24T08:19:14.298Z,18.77
2017-09-24T08:21:44.326Z,18.93
2017-09-24T08:24:14.240Z,17.47
2017-09-24T08:26:44.515Z,17.87
2017-09-24T08:29:14.432Z,17.77
2017-09-24T08:31:44.345Z,18.27
2017-09-24T08:34:14.294Z,16.37
2017-09-24T08:36:44.176Z,19.37
2017-09-24T08:39:14.023Z,19.57
2017-09-24T08:41:43.932Z,16.70
2017-09-24T08:44:14.220Z,18.10
2017-09-24T08:46:44.134Z,19.63
2017-09-24T08:49:14.467Z,16.77
2017-09-24T08:51:44.389Z,20.37
2017-09-24T08:54:14.434Z,18.87
2017-09-24T08:56:44.357Z,16.90
2017-09-24T08:59:14.350Z,14.80
2017-09-24T09:01:44.641Z,20.43
2017-09-24T09:04:14.665Z,18.17
2017-09-24T09:06:45.150Z,18.47
2017-09-24T09:09:15.085Z,17.60
2017-09-24T09:11:45.538Z,17.77
2017-09-24T09:14:15.550Z,10.77
2017-09-24T09:16:45.897Z,20.03
2017-09-24T09:19:15.815Z,18.13
2017-09-24T09:21:47.688Z,22.03
2017-09-24T09:24:17.613Z,18.73
2017-09-24T09:26:48.001Z,20.37
2017-09-24T09:29:17.921Z,19.50
2017-09-24T09:31:48.323Z,20.27
2017-09-24T09:34:29.828Z,21.00
2017-09-24T09:37:00.245Z,18.30
2017-09-24T09:39:30.231Z,19.07
2017-09-24T09:42:00.672Z,25.73
2017-09-24T09:44:42.371Z,21.50
2017-09-24T09:47:24.271Z,21.90
2017-09-24T09:49:54.167Z,21.47
2017-09-24T09:52:24.479Z,23.57
2017-09-24T09:54:54.478Z,22.83
2017-09-24T09:57:24.755Z,19.33
2017-09-24T09:59:54.783Z,17.40
2017-09-24T10:02:25.055Z,22.73
2017-09-24T10:04:55.133Z,18.10
2017-09-24T10:07:37.077Z,25.30
2017-09-24T10:10:16.805Z,20.63
2017-09-24T10:12:47.140Z,25.53
2017-09-24T10:15:17.072Z,20.60
2017-09-24T10:17:47.483Z,17.80
2017-09-24T10:20:17.420Z,25.63
2017-09-24T10:22:47.714Z,20.67
2017-09-24T10:25:17.629Z,21.73
2017-09-24T10:27:47.908Z,23.63
2017-09-24T10:30:29.832Z,23.90
2017-09-24T10:33:00.140Z,23.47
2017-09-24T10:35:30.012Z,18.53
2017-09-24T10:38:00.326Z,20.20
2017-09-24T10:40:30.227Z,22.80
2017-09-24T10:43:00.483Z,19.60
2017-09-24T10:45:30.367Z,23.80
2017-09-24T10:48:00.283Z,22.77
2017-09-24T10:50:30.233Z,19.27
2017-09-24T10:53:00.140Z,21.20
2017-09-24T10:55:30.455Z,18.90
2017-09-24T10:58:01.069Z,23.20
2017-09-24T11:00:31.563Z,18.23
2017-09-24T11:03:01.494Z,18.27
2017-09-24T11:05:31.465Z,17.70
2017-09-24T11:08:01.365Z,13.80
2017-09-24T11:10:31.593Z,16.77
2017-09-24T11:13:01.856Z,18.83
2017-09-24T11:15:32.861Z,19.97
2017-09-24T11:18:03.187Z,21.53
2017-09-24T11:20:33.096Z,18.87
2017-09-24T11:23:03.437Z,16.67
2017-09-24T11:25:33.531Z,17.57
2017-09-24T11:28:03.818Z,18.30
2017-09-24T11:30:33.739Z,16.90
2017-09-24T11:33:03.999Z,23.90
2017-09-24T11:35:33.928Z,20.00
2017-09-24T11:38:04.579Z,16.03
2017-09-24T11:40:34.518Z,18.43
2017-09-24T11:43:04.948Z,17.40
2017-09-24T11:45:35.049Z,20.00
2017-09-24T11:48:05.421Z,18.73
2017-09-24T11:50:35.394Z,18.10
2017-09-24T11:53:05.340Z,18.50
2017-09-24T11:55:35.429Z,18.30
2017-09-24T11:58:06.053Z,16.97
2017-09-24T12:00:36.487Z,16.60
2017-09-24T12:03:06.416Z,16.63
2017-09-24T12:05:36.747Z,17.60
2017-09-24T12:08:06.735Z,17.90
2017-09-24T12:10:37.063Z,18.90
2017-09-24T12:13:07.100Z,18.50
2017-09-24T12:15:37.628Z,17.40
2017-09-24T12:18:07.688Z,22.20
2017-09-24T12:20:38.426Z,17.93
2017-09-24T12:23:08.355Z,18.63
2017-09-24T12:25:38.782Z,17.20
2017-09-24T12:28:08.697Z,21.00
2017-09-24T12:30:39.123Z,19.80
2017-09-24T12:33:09.030Z,19.67
2017-09-24T12:35:39.295Z,19.00
2017-09-24T12:38:09.215Z,19.07
2017-09-24T12:40:39.499Z,19.70
2017-09-24T12:43:09.421Z,21.47
2017-09-24T12:45:39.364Z,19.40
2017-09-24T12:48:09.326Z,25.07
2017-09-24T12:50:39.313Z,23.63
2017-09-24T12:53:09.648Z,22.80
2017-09-24T12:55:39.553Z,26.50
2017-09-24T12:58:10.004Z,22.47
2017-09-24T13:00:39.880Z,22.17
2017-09-24T13:03:10.242Z,25.57
2017-09-24T13:05:40.169Z,21.37
2017-09-24T13:08:10.481Z,21.97
2017-09-24T13:10:40.379Z,24.83
2017-09-24T13:13:10.322Z,20.27
2017-09-24T13:15:40.278Z,19.77
2017-09-24T13:18:10.252Z,21.77
2017-09-24T13:20:40.577Z,29.53
2017-09-24T13:23:11.507Z,22.10
2017-09-24T13:25:41.832Z,23.77
2017-09-24T13:28:12.070Z,21.83
2017-09-24T13:30:42.477Z,21.70
2017-09-24T13:33:12.420Z,22.57
2017-09-24T13:35:42.758Z,19.63
2017-09-24T13:38:12.708Z,24.43
2017-09-24T13:40:43.036Z,21.00
2017-09-24T13:43:12.939Z,18.83
2017-09-24T13:45:43.220Z,16.90
2017-09-24T13:48:13.392Z,17.53
2017-09-24T13:50:44.049Z,18.20
2017-09-24T13:53:13.994Z,23.63
2017-09-24T13:55:44.370Z,17.67
2017-09-24T13:58:14.280Z,16.70
2017-09-24T14:00:44.602Z,17.90
2017-09-24T14:03:14.498Z,18.43
2017-09-24T14:05:44.870Z,19.77
2017-09-24T14:08:14.831Z,14.67
2017-09-24T14:10:45.184Z,16.73
2017-09-24T14:13:15.253Z,17.63
2017-09-24T14:15:45.819Z,16.00
2017-09-24T14:18:15.843Z,17.07
2017-09-24T14:20:46.192Z,17.07
2017-09-24T14:23:16.126Z,17.30
2017-09-24T14:25:46.384Z,16.30
2017-09-24T14:28:16.322Z,15.73
2017-09-24T14:30:46.399Z,15.47
2017-09-24T14:33:16.334Z,15.60
2017-09-24T14:35:46.330Z,16.60
2017-09-24T14:38:16.621Z,15.40
2017-09-24T14:40:46.520Z,16.00
2017-09-24T14:43:16.779Z,20.17
2017-09-24T14:45:46.731Z,19.80
2017-09-24T14:48:17.100Z,22.50
2017-09-24T14:50:47.047Z,18.40
2017-09-24T14:53:17.424Z,17.87
2017-09-24T14:55:47.434Z,19.13
2017-09-24T14:58:17.759Z,19.03
2017-09-24T15:00:47.842Z,18.97
2017-09-24T15:03:18.207Z,19.50
2017-09-24T15:05:48.127Z,20.93
2017-09-24T15:08:18.550Z,19.63
2017-09-24T15:10:48.465Z,26.30
2017-09-24T15:13:18.734Z,21.07
2017-09-24T15:15:48.639Z,19.07
2017-09-24T15:18:18.876Z,23.83
2017-09-24T15:20:48.768Z,22.40
2017-09-24T15:23:19.146Z,25.80
2017-09-24T15:25:49.134Z,19.57
2017-09-24T15:28:19.585Z,22.23
2017-09-24T15:30:49.482Z,21.93
2017-09-24T15:33:19.844Z,20.27
2017-09-24T15:35:49.814Z,19.03
2017-09-24T15:38:20.164Z,22.77
2017-09-24T15:40:50.101Z,24.30
2017-09-24T15:43:20.416Z,21.30
2017-09-24T15:45:50.347Z,20.23
2017-09-24T15:48:20.891Z,27.77
2017-09-24T15:50:50.802Z,19.17
2017-09-24T15:53:21.167Z,22.70
2017-09-24T15:55:51.092Z,29.10
2017-09-24T15:58:21.464Z,19.80
2017-09-24T16:00:51.371Z,21.73
2017-09-24T16:03:21.709Z,23.30
2017-09-24T16:05:51.636Z,21.97
2017-09-24T16:08:22.097Z,29.03
2017-09-24T16:10:52.010Z,22.23
2017-09-24T16:13:22.408Z,25.10
2017-09-24T16:15:52.319Z,25.53
2017-09-24T16:18:22.574Z,23.67
2017-09-24T16:20:52.514Z,23.27
2017-09-24T16:23:22.844Z,25.53
2017-09-24T16:25:52.931Z,24.60
2017-09-24T16:28:23.232Z,23.53
2017-09-24T16:30:53.152Z,23.13
2017-09-24T16:33:23.436Z,25.30
2017-09-24T16:35:53.406Z,26.30
2017-09-24T16:38:23.429Z,26.13
2017-09-24T16:40:53.340Z,25.67
2017-09-24T16:43:23.293Z,26.43
2017-09-24T16:45:53.594Z,26.10
2017-09-24T16:48:23.532Z,27.13
2017-09-24T16:50:53.897Z,25.90
2017-09-24T16:53:23.861Z,27.83
2017-09-24T16:55:54.266Z,30.90
2017-09-24T16:58:24.272Z,27.67
2017-09-24T17:00:54.542Z,23.97
2017-09-24T17:03:24.628Z,29.33
2017-09-24T17:05:55.036Z,24.83
2017-09-24T17:08:25.063Z,25.97
2017-09-24T17:10:55.399Z,27.53
2017-09-24T17:13:25.305Z,26.00
2017-09-24T17:15:55.566Z,32.87
2017-09-24T17:18:26.633Z,29.50
2017-09-24T17:20:57.092Z,27.83
2017-09-24T17:23:27.045Z,27.67
2017-09-24T17:25:57.330Z,30.07
2017-09-24T17:28:27.252Z,26.53
2017-09-24T17:30:57.547Z,28.67
2017-09-24T17:33:27.490Z,30.73
2017-09-24T17:35:57.771Z,29.13
2017-09-24T17:38:27.832Z,36.93
2017-09-24T17:40:58.114Z,31.33
2017-09-24T17:43:28.058Z,31.20
2017-09-24T17:45:58.450Z,32.30
2017-09-24T17:48:28.342Z,32.03
2017-09-24T17:50:58.587Z,31.80
2017-09-24T17:53:28.554Z,32.03
2017-09-24T17:55:59.027Z,31.70
2017-09-24T17:58:28.976Z,37.53
2017-09-24T18:00:59.366Z,37.20
2017-09-24T18:03:29.408Z,33.03
2017-09-24T18:05:59.704Z,37.97
2017-09-24T18:08:29.655Z,35.70
2017-09-24T18:10:59.954Z,36.60
2017-09-24T18:13:29.894Z,35.90
2017-09-24T18:16:00.281Z,37.27
2017-09-24T18:18:30.271Z,42.97
2017-09-24T18:21:00.582Z,35.37
2017-09-24T18:23:30.469Z,37.83
2017-09-24T18:26:00.874Z,42.33
2017-09-24T18:28:30.853Z,37.70
2017-09-24T18:31:01.304Z,39.20
2017-09-24T18:33:31.292Z,39.20
2017-09-24T18:36:01.725Z,42.10
2017-09-24T18:38:31.643Z,36.63
2017-09-24T18:41:01.974Z,39.60
2017-09-24T18:43:31.884Z,42.40
2017-09-24T18:46:02.207Z,35.50
2017-09-24T18:48:32.191Z,37.67
2017-09-24T18:51:02.637Z,39.00
2017-09-24T18:53:32.555Z,37.47
2017-09-24T18:56:03.519Z,35.80
2017-09-24T18:58:33.443Z,38.23
2017-09-24T19:01:03.551Z,37.43
2017-09-24T19:03:33.526Z,39.80
2017-09-24T19:06:03.528Z,38.10
2017-09-24T19:08:34.681Z,37.10
2017-09-24T19:11:04.747Z,35.17
2017-09-24T19:13:35.059Z,35.63
2017-09-24T19:16:05.044Z,42.87
2017-09-24T19:18:35.416Z,36.37
2017-09-24T19:21:05.593Z,40.53
2017-09-24T19:23:35.922Z,40.27
2017-09-24T19:26:05.919Z,36.07
2017-09-24T19:28:36.197Z,36.43
2017-09-24T19:31:06.108Z,36.53
2017-09-24T19:33:36.349Z,39.57
2017-09-24T19:36:06.254Z,36.87
2017-09-24T19:38:36.637Z,35.27
2017-09-24T19:41:06.591Z,37.60
2017-09-24T19:43:36.829Z,36.37
2017-09-24T19:46:06.804Z,38.37
2017-09-24T19:48:37.090Z,38.83
2017-09-24T19:51:07.004Z,36.93
2017-09-24T19:53:37.294Z,36.20
2017-09-24T19:56:07.216Z,38.70
2017-09-24T19:58:38.319Z,38.07
2017-09-24T20:01:08.355Z,38.00
2017-09-24T20:03:38.765Z,42.30
2017-09-24T20:06:08.700Z,45.20
2017-09-24T20:08:39.079Z,38.97
2017-09-24T20:11:09.043Z,37.63
2017-09-24T20:13:39.421Z,48.20
2017-09-24T20:16:09.457Z,38.50
2017-09-24T20:18:39.758Z,36.67
2017-09-24T20:21:09.683Z,35.17
2017-09-24T20:23:39.975Z,41.00
2017-09-24T20:26:09.850Z,35.43
2017-09-24T20:28:40.242Z,33.80
2017-09-24T20:31:10.145Z,32.40
2017-09-24T20:33:40.446Z,34.40
2017-09-24T20:36:10.378Z,40.70
2017-09-24T20:38:40.348Z,42.40
2017-09-24T20:41:10.276Z,36.97
2017-09-24T20:43:40.315Z,42.47
2017-09-24T20:46:10.583Z,35.73
2017-09-24T20:48:40.624Z,36.60
2017-09-24T20:51:11.004Z,34.37
2017-09-24T20:53:40.959Z,36.50
2017-09-24T20:56:10.997Z,38.50
2017-09-24T20:58:41.054Z,37.07
2017-09-24T21:01:11.360Z,36.40
2017-09-24T21:03:41.372Z,34.37
2017-09-24T21:06:11.694Z,39.00
2017-09-24T21:08:41.612Z,35.47
2017-09-24T21:11:11.951Z,41.60
2017-09-24T21:13:41.923Z,39.97
2017-09-24T21:16:12.317Z,40.60
2017-09-24T21:18:42.390Z,39.73
2017-09-24T21:21:12.710Z,46.10
2017-09-24T21:23:42.649Z,37.83
2017-09-24T21:26:12.979Z,40.67
2017-09-24T21:28:43.498Z,41.67
2017-09-24T21:31:13.841Z,39.93
2017-09-24T21:33:43.788Z,38.07
2017-09-24T21:36:14.242Z,40.13
2017-09-24T21:38:44.168Z,43.27
2017-09-24T21:41:14.676Z,40.47
2017-09-24T21:43:44.571Z,40.60
2017-09-24T21:46:15.089Z,45.20
2017-09-24T21:48:45.007Z,39.93
2017-09-24T21:51:15.267Z,40.40
2017-09-24T21:53:45.262Z,38.90
2017-09-24T21:56:15.747Z,41.77
2017-09-24T21:58:45.688Z,36.47
2017-09-24T22:01:15.940Z,44.10
2017-09-24T22:03:45.884Z,39.73
2017-09-24T22:06:16.286Z,39.93
2017-09-24T22:08:46.586Z,43.73
2017-09-24T22:11:16.813Z,37.30
2017-09-24T22:13:47.585Z,41.60
2017-09-24T22:16:17.932Z,43.47
2017-09-24T22:18:47.834Z,40.17
2017-09-24T22:21:18.426Z,39.97
2017-09-24T22:23:48.315Z,44.60
2017-09-24T22:26:18.560Z,38.20
2017-09-24T22:28:48.509Z,42.00
2017-09-24T22:31:18.869Z,41.10
2017-09-24T22:33:48.781Z,37.20
2017-09-24T22:36:19.232Z,38.30
2017-09-24T22:38:51.220Z,39.80
2017-09-24T22:41:21.530Z,40.63
2017-09-24T22:43:51.438Z,44.93
2017-09-24T22:46:21.353Z,39.53
2017-09-24T22:48:51.690Z,46.10
2017-09-24T22:51:21.566Z,42.67
2017-09-24T22:53:51.918Z,42.17
2017-09-24T22:56:21.992Z,47.07
2017-09-24T22:58:52.211Z,45.33
2017-09-24T23:01:22.117Z,48.07
2017-09-24T23:03:52.409Z,59.97
2017-09-24T23:06:22.348Z,66.83
2017-09-24T23:08:52.575Z,58.93
2017-09-24T23:11:22.469Z,70.07
2017-09-24T23:13:52.394Z,69.60
2017-09-24T23:16:22.594Z,77.27
2017-09-24T23:18:52.471Z,64.67
2017-09-24T23:21:22.394Z,63.60
2017-09-24T23:23:52.716Z,66.57
2017-09-24T23:26:22.611Z,75.37
2017-09-24T23:28:52.866Z,72.67
2017-09-24T23:31:22.738Z,78.07
2017-09-24T23:33:52.997Z,78.50
2017-09-24T23:36:22.875Z,91.73
2017-09-24T23:38:53.219Z,81.80
2017-09-24T23:41:23.214Z,85.50
2017-09-24T23:43:53.473Z,83.87
2017-09-24T23:46:23.384Z,83.30
2017-09-24T23:48:53.291Z,72.70
2017-09-24T23:51:23.210Z,73.27
2017-09-24T23:53:53.086Z,70.13
2017-09-24T23:56:23.654Z,75.27
2017-09-24T23:58:53.707Z,81.23
